createdAt,value
2022-12-28T00:01:17.481Z,25.43
2022-12-28T00:03:45.257Z,26.57
2022-12-28T00:06:15.313Z,26.30
2022-12-28T00:08:43.164Z,25.07
2022-12-28T00:11:20.431Z,24.77
2022-12-28T00:13:55.706Z,23.67
2022-12-28T00:16:26.791Z,21.17
2022-12-28T00:18:54.825Z,21.17
2022-12-28T00:21:24.194Z,20.70
2022-12-28T00:23:52.856Z,19.97
2022-12-28T00:26:21.287Z,19.37
2022-12-28T00:28:49.630Z,18.10
2022-12-28T00:31:17.625Z,16.67
2022-12-28T00:33:45.479Z,14.90
2022-12-28T00:36:14.632Z,12.87
2022-12-28T00:38:44.222Z,12.83
2022-12-28T00:41:12.391Z,12.27
2022-12-28T00:43:40.437Z,12.07
2022-12-28T00:48:52.643Z,10.87
2022-12-28T00:51:21.341Z,9.93
2022-12-28T00:53:50.484Z,10.07
2022-12-28T00:56:20.198Z,8.87
2022-12-28T00:58:48.118Z,9.30
2022-12-28T01:01:18.016Z,8.70
2022-12-28T01:03:45.954Z,8.50
2022-12-28T01:06:15.581Z,7.63
2022-12-28T01:08:43.716Z,8.23
2022-12-28T01:11:17.656Z,8.07
2022-12-28T01:13:45.555Z,7.10
2022-12-28T01:16:14.060Z,7.40
2022-12-28T01:18:41.908Z,7.40
2022-12-28T01:21:11.709Z,7.70
2022-12-28T01:23:39.417Z,7.20
2022-12-28T01:26:07.616Z,7.23
2022-12-28T01:28:37.280Z,6.50
2022-12-28T01:31:06.456Z,6.00
2022-12-28T01:33:34.236Z,6.33
2022-12-28T01:36:07.082Z,6.73
2022-12-28T01:38:34.856Z,6.20
2022-12-28T01:41:02.613Z,5.80
2022-12-28T01:43:42.107Z,5.63
2022-12-28T01:46:17.388Z,5.10
2022-12-28T01:48:48.864Z,5.77
2022-12-28T01:51:17.176Z,5.97
2022-12-28T01:53:45.140Z,5.20
2022-12-28T01:56:13.218Z,5.13
2022-12-28T01:58:42.411Z,5.10
2022-12-28T02:01:13.142Z,5.33
2022-12-28T02:03:40.972Z,5.13
2022-12-28T02:06:11.431Z,4.70
2022-12-28T02:08:43.015Z,5.27
2022-12-28T02:11:13.409Z,5.60
2022-12-28T02:13:44.434Z,4.93
2022-12-28T02:16:12.754Z,5.53
2022-12-28T02:18:40.872Z,4.90
2022-12-28T02:21:25.873Z,4.80
2022-12-28T02:24:26.812Z,4.80
2022-12-28T02:27:01.546Z,4.50
2022-12-28T02:29:53.725Z,4.50
2022-12-28T02:32:30.487Z,4.47
2022-12-28T02:35:02.095Z,4.60
2022-12-28T02:37:33.605Z,4.27
2022-12-28T02:40:04.835Z,3.57
2022-12-28T02:42:33.108Z,3.80
2022-12-28T02:45:22.256Z,3.70
2022-12-28T02:48:07.551Z,4.13
2022-12-28T02:50:43.684Z,3.93
2022-12-28T02:53:34.435Z,3.87
2022-12-28T02:56:10.778Z,3.57
2022-12-28T02:59:04.122Z,3.47
2022-12-28T03:01:52.081Z,3.30
2022-12-28T03:04:28.499Z,3.40
2022-12-28T03:07:18.360Z,3.50
2022-12-28T03:09:52.549Z,2.90
2022-12-28T03:12:26.592Z,2.93
2022-12-28T03:14:58.820Z,3.00
2022-12-28T03:17:46.737Z,2.73
2022-12-28T03:20:35.920Z,2.80
2022-12-28T03:23:21.770Z,2.80
2022-12-28T03:26:08.629Z,2.50
2022-12-28T03:28:53.941Z,2.03
2022-12-28T03:31:24.805Z,2.23
2022-12-28T03:34:06.655Z,2.20
2022-12-28T03:36:42.695Z,2.03
2022-12-28T03:39:15.996Z,1.90
2022-12-28T03:41:47.402Z,1.80
2022-12-28T03:44:21.274Z,1.53
2022-12-28T03:46:53.583Z,1.67
2022-12-28T03:49:23.644Z,1.43
2022-12-28T03:51:52.109Z,1.40
2022-12-28T03:54:20.187Z,1.30
2022-12-28T03:56:49.031Z,1.40
2022-12-28T03:59:16.901Z,1.33
2022-12-28T04:01:44.916Z,1.20
2022-12-28T04:04:13.047Z,1.23
2022-12-28T04:06:43.973Z,1.20
2022-12-28T04:09:11.802Z,1.20
2022-12-28T04:11:39.604Z,1.20
2022-12-28T04:14:10.884Z,1.33
2022-12-28T04:16:39.131Z,1.10
2022-12-28T04:19:07.010Z,1.00
2022-12-28T04:21:34.734Z,1.20
2022-12-28T04:24:03.846Z,1.10
2022-12-28T04:26:31.583Z,1.17
2022-12-28T04:29:02.034Z,1.23
2022-12-28T04:31:30.231Z,1.50
2022-12-28T04:33:58.691Z,1.00
2022-12-28T04:36:26.705Z,0.83
2022-12-28T04:38:54.489Z,1.00
2022-12-28T04:41:23.607Z,0.90
2022-12-28T04:43:51.527Z,0.90
2022-12-28T04:46:19.714Z,1.00
2022-12-28T04:48:47.636Z,1.10
2022-12-28T04:51:18.341Z,1.00
2022-12-28T04:53:46.207Z,0.83
2022-12-28T04:56:15.188Z,0.87
2022-12-28T04:58:44.489Z,0.80
2022-12-28T05:01:13.829Z,0.70
2022-12-28T05:03:42.815Z,0.80
2022-12-28T05:06:12.765Z,0.90
2022-12-28T05:08:40.720Z,0.50
2022-12-28T05:11:10.508Z,0.87
2022-12-28T05:13:38.517Z,1.00
2022-12-28T05:16:09.584Z,0.80
2022-12-28T05:18:37.873Z,0.70
2022-12-28T05:21:07.199Z,0.73
2022-12-28T05:23:36.334Z,0.73
2022-12-28T05:26:04.537Z,1.00
2022-12-28T05:28:32.668Z,0.80
2022-12-28T05:31:02.502Z,0.80
2022-12-28T05:33:33.782Z,0.83
2022-12-28T05:36:04.444Z,1.00
2022-12-28T05:38:32.493Z,0.93
2022-12-28T05:41:05.903Z,1.00
2022-12-28T05:43:34.001Z,1.00
2022-12-28T05:46:04.101Z,0.90
2022-12-28T05:48:34.610Z,0.90
2022-12-28T05:51:03.638Z,0.70
2022-12-28T05:53:31.971Z,0.80
2022-12-28T05:56:04.996Z,0.90
2022-12-28T05:58:33.670Z,0.80
2022-12-28T06:01:06.065Z,0.90
2022-12-28T06:03:35.357Z,1.10
2022-12-28T06:06:07.797Z,1.00
2022-12-28T06:08:35.779Z,1.07
2022-12-28T06:11:04.131Z,1.23
2022-12-28T06:13:33.513Z,1.37
2022-12-28T06:16:07.665Z,1.40
2022-12-28T06:18:38.153Z,1.40
2022-12-28T06:21:07.095Z,1.20
2022-12-28T06:23:34.972Z,1.30
2022-12-28T06:26:04.206Z,1.30
2022-12-28T06:28:32.004Z,1.07
2022-12-28T06:31:03.518Z,1.20
2022-12-28T06:33:31.410Z,1.20
2022-12-28T06:36:00.629Z,1.10
2022-12-28T06:38:31.200Z,1.10
2022-12-28T06:41:13.495Z,1.20
2022-12-28T06:43:43.063Z,1.30
2022-12-28T06:46:11.804Z,1.40
2022-12-28T06:48:40.495Z,1.17
2022-12-28T06:51:12.644Z,1.30
2022-12-28T06:53:40.696Z,1.20
2022-12-28T06:56:09.599Z,1.27
2022-12-28T06:58:37.434Z,1.77
2022-12-28T07:01:09.153Z,1.30
2022-12-28T07:03:36.989Z,1.13
2022-12-28T07:06:05.862Z,1.63
2022-12-28T07:08:35.175Z,1.40
2022-12-28T07:11:04.162Z,1.63
2022-12-28T07:13:31.922Z,1.57
2022-12-28T07:16:03.136Z,1.60
2022-12-28T07:18:30.893Z,1.60
2022-12-28T07:21:03.030Z,1.67
2022-12-28T07:23:31.478Z,1.40
2022-12-28T07:26:06.734Z,1.50
2022-12-28T07:28:34.781Z,1.53
2022-12-28T07:31:07.291Z,1.70
2022-12-28T07:33:35.400Z,1.70
2022-12-28T07:36:03.241Z,1.20
2022-12-28T07:38:31.032Z,1.77
2022-12-28T07:41:04.114Z,1.40
2022-12-28T07:43:31.867Z,1.63
2022-12-28T07:46:03.908Z,1.47
2022-12-28T07:48:32.529Z,1.43
2022-12-28T07:51:06.978Z,1.60
2022-12-28T07:53:35.039Z,1.50
2022-12-28T07:56:04.750Z,1.50
2022-12-28T07:58:32.532Z,1.90
2022-12-28T08:01:07.852Z,1.60
2022-12-28T08:03:36.197Z,1.40
2022-12-28T08:06:05.621Z,1.67
2022-12-28T08:08:36.146Z,1.53
2022-12-28T08:11:07.327Z,1.43
2022-12-28T08:13:35.913Z,1.07
2022-12-28T08:16:03.827Z,1.40
2022-12-28T08:18:32.240Z,1.40
2022-12-28T08:21:02.118Z,1.50
2022-12-28T08:23:30.581Z,1.30
2022-12-28T08:25:58.406Z,1.30
2022-12-28T08:28:27.563Z,1.60
2022-12-28T08:30:55.368Z,1.70
2022-12-28T08:33:23.082Z,1.73
2022-12-28T08:35:50.816Z,1.70
2022-12-28T08:38:18.810Z,1.50
2022-12-28T08:40:57.692Z,1.77
2022-12-28T08:43:28.147Z,1.57
2022-12-28T08:45:59.863Z,1.47
2022-12-28T08:48:27.688Z,1.50
2022-12-28T08:50:56.042Z,1.50
2022-12-28T08:53:24.306Z,1.47
2022-12-28T08:55:52.302Z,1.40
2022-12-28T08:58:20.112Z,1.50
2022-12-28T09:00:49.486Z,1.30
2022-12-28T09:03:17.624Z,1.50
2022-12-28T09:05:45.665Z,1.60
2022-12-28T09:08:14.799Z,1.63
2022-12-28T09:10:42.514Z,1.70
2022-12-28T09:13:10.306Z,1.67
2022-12-28T09:15:38.191Z,1.70
2022-12-28T09:18:07.436Z,1.50
2022-12-28T09:20:36.166Z,1.57
2022-12-28T09:23:03.973Z,1.40
2022-12-28T09:25:31.712Z,1.60
2022-12-28T09:27:59.778Z,1.50
2022-12-28T09:30:27.612Z,1.30
2022-12-28T09:33:15.953Z,1.60
2022-12-28T09:35:45.088Z,1.40
2022-12-28T09:38:12.872Z,1.30
2022-12-28T09:40:40.639Z,1.60
2022-12-28T09:43:10.355Z,1.57
2022-12-28T09:45:38.640Z,1.57
2022-12-28T09:48:09.217Z,1.40
2022-12-28T09:50:37.715Z,1.67
2022-12-28T09:53:20.781Z,1.70
2022-12-28T09:55:55.253Z,2.57
2022-12-28T09:58:23.391Z,3.90
2022-12-28T10:00:52.748Z,3.13
2022-12-28T10:03:21.930Z,2.60
2022-12-28T10:05:51.050Z,2.60
2022-12-28T10:08:22.304Z,2.30
2022-12-28T10:10:51.756Z,1.80
2022-12-28T10:13:45.523Z,1.90
2022-12-28T10:16:17.740Z,1.60
2022-12-28T10:18:46.251Z,1.73
2022-12-28T10:21:14.164Z,1.90
2022-12-28T10:24:04.535Z,1.93
2022-12-28T10:26:33.693Z,2.00
2022-12-28T10:29:02.425Z,1.87
2022-12-28T10:31:33.480Z,1.77
2022-12-28T10:34:01.317Z,2.33
2022-12-28T10:36:36.373Z,1.80
2022-12-28T10:39:05.687Z,2.30
2022-12-28T10:41:38.060Z,2.20
2022-12-28T10:44:38.985Z,2.50
2022-12-28T10:47:17.147Z,2.43
2022-12-28T10:50:10.216Z,2.60
2022-12-28T10:52:38.064Z,2.40
2022-12-28T10:55:28.179Z,2.50
2022-12-28T11:00:50.446Z,2.63
2022-12-28T11:03:23.156Z,2.57
2022-12-28T11:05:57.104Z,2.20
2022-12-28T11:08:25.334Z,2.30
2022-12-28T11:10:58.869Z,2.10
2022-12-28T11:13:27.488Z,1.90
2022-12-28T11:15:55.380Z,2.27
2022-12-28T11:18:23.277Z,1.90
2022-12-28T11:20:52.314Z,2.13
2022-12-28T11:23:21.901Z,2.00
2022-12-28T11:25:49.775Z,1.80
2022-12-28T11:28:21.887Z,1.63
2022-12-28T11:30:52.424Z,1.87
2022-12-28T11:33:27.744Z,1.80
2022-12-28T11:35:59.578Z,1.87
2022-12-28T11:38:41.600Z,1.73
2022-12-28T11:41:13.476Z,1.80
2022-12-28T11:44:05.144Z,1.63
2022-12-28T11:46:41.174Z,1.50
2022-12-28T11:49:33.416Z,1.80
2022-12-28T11:52:43.927Z,1.70
2022-12-28T11:55:45.791Z,1.67
2022-12-28T11:58:38.434Z,1.70
2022-12-28T12:01:09.818Z,1.80
2022-12-28T12:04:11.748Z,1.90
2022-12-28T12:07:08.442Z,2.10
2022-12-28T12:09:43.828Z,1.70
2022-12-28T12:12:37.531Z,1.87
2022-12-28T12:15:12.229Z,1.63
2022-12-28T12:17:46.950Z,1.93
2022-12-28T12:20:24.758Z,2.37
2022-12-28T12:22:54.815Z,2.13
2022-12-28T12:25:25.341Z,2.10
2022-12-28T12:27:56.545Z,2.00
2022-12-28T12:30:24.747Z,2.20
2022-12-28T12:32:56.899Z,2.43
2022-12-28T12:35:26.944Z,2.90
2022-12-28T12:37:56.704Z,3.10
2022-12-28T12:40:51.932Z,2.70
2022-12-28T12:43:37.625Z,2.37
2022-12-28T12:46:24.784Z,2.50
2022-12-28T12:49:18.702Z,2.80
2022-12-28T12:51:50.815Z,2.90
2022-12-28T12:54:28.159Z,3.10
2022-12-28T12:56:59.114Z,3.83
2022-12-28T12:59:50.857Z,4.00
2022-12-28T13:02:54.324Z,3.80
2022-12-28T13:05:26.773Z,3.70
2022-12-28T13:07:56.470Z,3.50
2022-12-28T13:10:27.621Z,3.40
2022-12-28T13:12:59.408Z,3.40
2022-12-28T13:15:27.309Z,2.70
2022-12-28T13:20:56.747Z,2.70
2022-12-28T13:23:25.438Z,2.90
2022-12-28T13:25:54.485Z,2.80
2022-12-28T13:28:24.176Z,3.03
2022-12-28T13:31:09.228Z,3.23
2022-12-28T13:33:36.995Z,2.80
2022-12-28T13:36:18.395Z,3.37
2022-12-28T13:38:48.916Z,3.27
2022-12-28T13:41:21.711Z,3.23
2022-12-28T13:44:32.843Z,3.27
2022-12-28T13:47:04.229Z,3.17
2022-12-28T13:49:36.831Z,3.80
2022-12-28T13:52:10.703Z,3.57
2022-12-28T13:54:38.897Z,4.10
2022-12-28T13:57:44.757Z,3.83
2022-12-28T13:59:56.248Z,4.23
2022-12-28T14:02:24.422Z,5.00
2022-12-28T14:04:53.853Z,4.83
2022-12-28T14:07:25.868Z,5.30
2022-12-28T14:09:54.182Z,5.10
2022-12-28T14:12:22.048Z,5.10
2022-12-28T14:14:49.994Z,4.97
2022-12-28T14:17:18.378Z,4.50
2022-12-28T14:19:46.530Z,4.03
2022-12-28T14:22:30.227Z,4.60
2022-12-28T14:25:03.116Z,4.30
2022-12-28T14:27:32.205Z,4.63
2022-12-28T14:30:01.824Z,4.30
2022-12-28T14:32:29.559Z,3.97
2022-12-28T14:34:58.855Z,4.13
2022-12-28T14:37:32.656Z,4.53
2022-12-28T14:40:02.623Z,4.13
2022-12-28T14:42:31.349Z,3.97
2022-12-28T14:44:59.140Z,4.13
2022-12-28T14:50:26.992Z,3.93
2022-12-28T14:53:08.436Z,4.03
2022-12-28T14:55:39.129Z,3.97
2022-12-28T14:58:14.525Z,4.07
2022-12-28T15:00:55.480Z,4.67
2022-12-28T15:03:24.858Z,4.57
2022-12-28T15:05:54.510Z,4.73
2022-12-28T15:08:24.007Z,3.60
2022-12-28T15:10:53.408Z,4.27
2022-12-28T15:13:22.203Z,4.60
2022-12-28T15:15:57.752Z,4.47
2022-12-28T15:18:26.878Z,4.60
2022-12-28T15:20:54.968Z,4.80
2022-12-28T15:23:24.197Z,4.90
2022-12-28T15:25:52.030Z,5.27
2022-12-28T15:28:19.832Z,5.60
2022-12-28T15:30:47.584Z,5.10
2022-12-28T15:33:16.463Z,6.27
2022-12-28T15:35:44.260Z,8.20
2022-12-28T15:38:12.156Z,8.27
2022-12-28T15:40:41.511Z,9.63
2022-12-28T15:43:09.262Z,9.20
2022-12-28T15:45:37.006Z,8.80
2022-12-28T15:48:05.258Z,8.37
2022-12-28T15:50:33.354Z,7.83
2022-12-28T15:53:01.081Z,8.53
2022-12-28T15:55:28.827Z,8.90
2022-12-28T15:58:00.206Z,9.30
2022-12-28T16:00:28.239Z,9.03
2022-12-28T16:02:56.682Z,8.50
2022-12-28T16:05:24.612Z,8.13
2022-12-28T16:07:52.561Z,8.43
2022-12-28T16:10:20.872Z,7.93
2022-12-28T16:12:48.661Z,7.80
2022-12-28T16:15:18.146Z,8.57
2022-12-28T16:17:55.052Z,8.13
2022-12-28T16:20:26.109Z,8.33
2022-12-28T16:22:54.338Z,9.33
2022-12-28T16:25:22.083Z,10.13
2022-12-28T16:27:49.842Z,10.50
2022-12-28T16:30:19.450Z,10.30
2022-12-28T16:32:47.921Z,10.50
2022-12-28T16:35:15.973Z,11.60
2022-12-28T16:37:43.731Z,10.20
2022-12-28T16:40:12.267Z,10.40
2022-12-28T16:42:45.614Z,11.50
2022-12-28T16:45:13.513Z,11.60
2022-12-28T16:47:44.813Z,11.83
2022-12-28T16:50:13.009Z,11.77
2022-12-28T16:52:40.952Z,11.00
2022-12-28T16:55:10.256Z,10.33
2022-12-28T16:57:38.124Z,10.50
2022-12-28T17:00:06.959Z,9.60
2022-12-28T17:02:34.968Z,9.73
2022-12-28T17:05:04.283Z,10.33
2022-12-28T17:07:32.092Z,10.60
2022-12-28T17:09:59.868Z,10.90
2022-12-28T17:12:27.671Z,11.60
2022-12-28T17:14:55.491Z,12.10
2022-12-28T17:17:23.423Z,13.53
2022-12-28T17:19:51.167Z,12.50
2022-12-28T17:22:20.295Z,13.13
2022-12-28T17:24:48.263Z,13.03
2022-12-28T17:27:19.235Z,14.40
2022-12-28T17:29:47.383Z,12.83
2022-12-28T17:32:17.862Z,12.07
2022-12-28T17:34:46.025Z,12.23
2022-12-28T17:37:16.157Z,12.03
2022-12-28T17:39:47.855Z,11.63
2022-12-28T17:42:15.916Z,11.03
2022-12-28T17:44:45.778Z,11.60
2022-12-28T17:47:13.639Z,12.37
2022-12-28T17:49:41.563Z,12.70
2022-12-28T17:52:09.361Z,13.37
2022-12-28T17:54:37.100Z,12.83
2022-12-28T17:57:06.210Z,12.90
2022-12-28T17:59:34.716Z,12.70
2022-12-28T18:02:05.059Z,12.73
2022-12-28T18:04:33.847Z,13.43
2022-12-28T18:07:01.579Z,13.10
2022-12-28T18:09:29.286Z,13.03
2022-12-28T18:11:57.440Z,12.27
2022-12-28T18:14:26.991Z,12.97
2022-12-28T18:16:57.600Z,12.93
2022-12-28T18:19:25.695Z,13.67
2022-12-28T18:21:53.463Z,13.17
2022-12-28T18:24:22.384Z,14.13
2022-12-28T18:26:50.099Z,14.40
2022-12-28T18:29:19.851Z,13.57
2022-12-28T18:31:49.047Z,14.37
2022-12-28T18:34:16.801Z,13.87
2022-12-28T18:36:44.594Z,13.70
2022-12-28T18:39:12.368Z,13.27
2022-12-28T18:41:40.141Z,13.80
2022-12-28T18:44:07.987Z,14.07
2022-12-28T18:46:36.007Z,14.37
2022-12-28T18:49:05.181Z,13.90
2022-12-28T18:51:32.917Z,13.50
2022-12-28T18:54:00.705Z,13.27
2022-12-28T18:56:28.475Z,12.53
2022-12-28T18:58:57.253Z,12.90
2022-12-28T19:02:05.370Z,12.70
2022-12-28T19:04:16.469Z,13.70
2022-12-28T19:06:44.807Z,14.60
2022-12-28T19:09:13.048Z,14.23
2022-12-28T19:11:41.855Z,13.67
2022-12-28T19:14:12.577Z,12.70
2022-12-28T19:16:40.826Z,13.13
2022-12-28T19:19:08.921Z,14.27
2022-12-28T19:21:39.123Z,15.07
2022-12-28T19:24:08.350Z,17.40
2022-12-28T19:26:37.027Z,17.57
2022-12-28T19:29:06.424Z,17.23
2022-12-28T19:31:35.279Z,16.97
2022-12-28T19:34:02.989Z,15.13
2022-12-28T19:36:30.855Z,15.57
2022-12-28T19:39:00.031Z,14.63
2022-12-28T19:41:27.810Z,14.23
2022-12-28T19:43:55.633Z,13.20
2022-12-28T19:46:30.709Z,13.00
2022-12-28T19:48:59.289Z,12.60
2022-12-28T19:51:31.394Z,12.40
2022-12-28T19:54:01.505Z,13.70
2022-12-28T19:56:29.413Z,13.53
2022-12-28T19:59:05.174Z,15.27
2022-12-28T20:01:34.716Z,14.40
2022-12-28T20:04:07.203Z,16.03
2022-12-28T20:06:40.515Z,16.60
2022-12-28T20:09:09.825Z,16.93
2022-12-28T20:11:38.400Z,16.13
2022-12-28T20:14:07.861Z,15.50
2022-12-28T20:16:36.232Z,15.10
2022-12-28T20:19:06.786Z,14.77
2022-12-28T20:21:35.063Z,15.50
2022-12-28T20:24:03.291Z,13.93
2022-12-28T20:26:33.199Z,12.77
2022-12-28T20:29:02.072Z,12.40
2022-12-28T20:31:30.140Z,11.73
2022-12-28T20:33:59.528Z,10.60
2022-12-28T20:36:28.876Z,11.73
2022-12-28T20:38:57.591Z,11.03
2022-12-28T20:41:44.549Z,11.60
2022-12-28T20:44:15.389Z,10.90
2022-12-28T20:46:44.122Z,10.10
2022-12-28T20:49:12.247Z,9.57
2022-12-28T20:51:41.245Z,10.83
2022-12-28T20:54:10.588Z,10.20
2022-12-28T20:56:41.781Z,11.03
2022-12-28T20:59:10.326Z,10.90
2022-12-28T21:01:40.085Z,11.70
2022-12-28T21:04:08.468Z,12.10
2022-12-28T21:06:36.657Z,12.23
2022-12-28T21:09:05.121Z,12.07
2022-12-28T21:11:33.223Z,12.70
2022-12-28T21:14:01.091Z,14.40
2022-12-28T21:16:28.923Z,14.47
2022-12-28T21:18:58.078Z,13.47
2022-12-28T21:21:25.814Z,15.43
2022-12-28T21:23:53.691Z,13.97
2022-12-28T21:26:22.360Z,14.23
2022-12-28T21:28:50.065Z,14.60
2022-12-28T21:31:17.901Z,13.73
2022-12-28T21:33:45.804Z,14.37
2022-12-28T21:36:16.571Z,13.97
2022-12-28T21:38:45.548Z,13.80
2022-12-28T21:41:16.907Z,13.70
2022-12-28T21:43:44.704Z,12.17
2022-12-28T21:46:16.334Z,13.03
2022-12-28T21:48:44.377Z,12.73
2022-12-28T21:51:27.490Z,13.63
2022-12-28T21:53:56.926Z,13.90
2022-12-28T21:56:25.220Z,13.53
2022-12-28T21:58:53.341Z,13.70
2022-12-28T22:01:44.081Z,14.33
2022-12-28T22:04:30.956Z,12.50
2022-12-28T22:06:58.889Z,13.33
2022-12-28T22:09:48.104Z,12.20
2022-12-28T22:12:34.019Z,14.07
2022-12-28T22:15:20.868Z,12.67
2022-12-28T22:17:48.647Z,13.03
2022-12-28T22:20:17.040Z,13.07
2022-12-28T22:22:45.075Z,13.40
2022-12-28T22:25:14.396Z,12.47
2022-12-28T22:27:42.174Z,12.77
2022-12-28T22:30:11.407Z,12.63
2022-12-28T22:32:39.165Z,12.00
2022-12-28T22:35:07.932Z,13.63
2022-12-28T22:37:36.588Z,13.73
2022-12-28T22:40:05.966Z,12.80
2022-12-28T22:42:36.270Z,13.87
2022-12-28T22:45:04.081Z,12.53
2022-12-28T22:47:32.012Z,13.03
2022-12-28T22:50:00.919Z,12.83
2022-12-28T22:52:28.629Z,13.67
2022-12-28T22:54:56.339Z,12.83
2022-12-28T22:57:24.316Z,14.10
2022-12-28T22:59:53.408Z,12.87
2022-12-28T23:02:21.576Z,13.70
2022-12-28T23:04:49.477Z,12.17
2022-12-28T23:07:17.964Z,12.03
2022-12-28T23:09:45.698Z,11.77
2022-12-28T23:12:13.463Z,11.13
2022-12-28T23:14:58.865Z,11.23
2022-12-28T23:17:29.170Z,11.13
2022-12-28T23:20:14.544Z,10.80
2022-12-28T23:23:15.524Z,10.60
2022-12-28T23:26:00.829Z,10.63
2022-12-28T23:28:28.653Z,9.40
2022-12-28T23:30:58.675Z,9.53
2022-12-28T23:33:27.786Z,9.80
2022-12-28T23:35:55.485Z,9.47
2022-12-28T23:38:23.289Z,9.57
2022-12-28T23:41:13.097Z,9.40
2022-12-28T23:43:41.974Z,10.03
2022-12-28T23:46:09.789Z,9.33
2022-12-28T23:48:38.877Z,9.73
2022-12-28T23:51:08.986Z,9.20
2022-12-28T23:53:36.815Z,9.53
2022-12-28T23:56:06.733Z,9.83
2022-12-28T23:58:34.516Z,8.83
